Time;durP1;ratioP1;P1;durP2;ratioP2;P2;SDS_P1;SDS_P2;PMS_P1;PMS_P2;Temp;Humidity;BMP_temperature;BMP_pressure;BME280_temperature;BME280_humidity;BME280_pressure;Samples;Min_cycle;Max_cycle;Signal;HPM_P1;HPM_P2
2021/01/10 00:01:16;;;;;;;54.97;23.05;;;;;;;1.36;100.00;103127.69;5073345;28;20506;-65
2021/01/10 00:03:41;;;;;;;61.42;24.88;;;;;;;1.39;100.00;103123.88;5073384;28;20036;-65
2021/01/10 00:06:10;;;;;;;60.83;24.15;;;;;;;1.40;100.00;103126.47;5073259;28;20044;-65
2021/01/10 00:08:36;;;;;;;61.65;25.00;;;;;;;1.40;100.00;103125.63;5073127;28;20040;-65
2021/01/10 00:11:02;;;;;;;59.35;25.27;;;;;;;1.39;100.00;103130.16;5072667;28;20113;-65
2021/01/10 00:13:27;;;;;;;59.00;24.95;;;;;;;1.39;100.00;103129.28;5073055;28;20547;-65
2021/01/10 00:15:54;;;;;;;65.05;25.02;;;;;;;1.40;100.00;103123.78;5073141;28;20394;-65
2021/01/10 00:18:19;;;;;;;60.05;24.02;;;;;;;1.41;100.00;103122.81;5073087;28;20461;-65
2021/01/10 00:20:45;;;;;;;65.57;25.90;;;;;;;1.43;100.00;103126.22;5072936;28;20129;-65
2021/01/10 00:23:11;;;;;;;58.55;24.15;;;;;;;1.44;100.00;103116.31;5072978;28;20032;-65
2021/01/10 00:25:36;;;;;;;56.17;24.75;;;;;;;1.45;100.00;103126.94;5072941;28;20594;-65
2021/01/10 00:28:02;;;;;;;56.03;22.85;;;;;;;1.41;100.00;103112.03;5072840;28;20474;-65
2021/01/10 00:30:28;;;;;;;55.95;24.17;;;;;;;1.41;100.00;103103.09;5072575;28;20047;-65
2021/01/10 00:32:55;;;;;;;57.55;23.27;;;;;;;1.40;100.00;103109.47;5072806;28;20039;-65
2021/01/10 00:35:23;;;;;;;53.75;23.02;;;;;;;1.40;100.00;103104.94;5072733;28;20429;-65
2021/01/10 00:37:51;;;;;;;53.97;23.15;;;;;;;1.40;100.00;103104.09;5072707;28;20090;-65
2021/01/10 00:40:18;;;;;;;51.83;23.38;;;;;;;1.39;100.00;103103.25;5072554;28;20044;-65
2021/01/10 00:42:45;;;;;;;50.92;21.50;;;;;;;1.38;100.00;103097.94;5072586;28;20382;-65
2021/01/10 00:45:12;;;;;;;48.78;21.88;;;;;;;1.34;100.00;103105.44;5072434;28;20041;-65
2021/01/10 00:47:38;;;;;;;49.80;21.70;;;;;;;1.31;100.00;103100.31;5072484;28;20113;-66
2021/01/10 00:50:06;;;;;;;51.67;22.80;;;;;;;1.30;100.00;103098.59;5072333;28;20135;-65
2021/01/10 00:52:31;;;;;;;46.90;19.92;;;;;;;1.27;100.00;103098.84;5072390;28;20037;-67
2021/01/10 00:54:57;;;;;;;46.47;21.13;;;;;;;1.21;100.00;103099.31;5072783;28;20402;-65
2021/01/10 00:57:23;;;;;;;48.03;20.45;;;;;;;1.18;100.00;103105.81;5072191;28;20048;-65
2021/01/10 00:59:48;;;;;;;41.95;19.92;;;;;;;1.15;100.00;103105.22;5072203;28;20482;-65
2021/01/10 01:02:15;;;;;;;46.22;21.13;;;;;;;1.13;100.00;103101.81;5072139;28;20478;-65
2021/01/10 01:04:40;;;;;;;52.25;22.42;;;;;;;1.08;100.00;103101.34;5071995;28;20033;-65
2021/01/10 01:07:06;;;;;;;47.28;20.50;;;;;;;1.05;100.00;103096.22;5072116;28;20526;-65
2021/01/10 01:09:32;;;;;;;52.42;21.67;;;;;;;1.01;100.00;103097.41;5071945;28;20530;-65
2021/01/10 01:11:59;;;;;;;50.22;22.05;;;;;;;1.01;100.00;103081.25;5071817;28;20048;-65
2021/01/10 01:14:24;;;;;;;51.70;22.23;;;;;;;1.02;100.00;103094.59;5071919;28;20067;-65
2021/01/10 01:16:50;;;;;;;47.15;21.67;;;;;;;1.04;100.00;103097.16;5071868;28;20475;-65
2021/01/10 01:19:15;;;;;;;50.53;22.92;;;;;;;1.07;100.00;103094.25;5071642;28;20051;-65
2021/01/10 01:21:41;;;;;;;50.88;23.52;;;;;;;1.08;100.00;103095.94;5071801;28;20033;-65
2021/01/10 01:24:07;;;;;;;44.97;21.75;;;;;;;1.06;100.00;103089.84;5071668;28;20037;-65
2021/01/10 01:26:33;;;;;;;45.47;20.55;;;;;;;1.04;100.00;103086.41;5071671;28;20483;-65
2021/01/10 01:28:59;;;;;;;64.53;23.80;;;;;;;1.03;100.00;103087.38;5071567;28;20036;-65
2021/01/10 01:31:27;;;;;;;54.72;24.75;;;;;;;1.01;100.00;103092.88;5071599;28;20438;-65
2021/01/10 01:33:54;;;;;;;60.72;25.88;;;;;;;1.04;100.00;103089.97;5071371;28;20036;-65
2021/01/10 01:36:27;;;;;;;58.20;24.40;;;;;;;1.07;100.00;103087.03;5071987;28;20435;-65
2021/01/10 01:38:58;;;;;;;53.90;24.48;;;;;;;1.12;100.00;103100.09;5071823;28;20133;-65
2021/01/10 01:41:24;;;;;;;53.30;22.65;;;;;;;1.11;100.00;103095.69;5071628;28;20832;-65
2021/01/10 01:43:50;;;;;;;56.92;24.45;;;;;;;1.12;100.00;103092.03;5071350;28;20563;-65
2021/01/10 01:46:28;;;;;;;50.40;22.08;;;;;;;1.04;100.00;103097.16;5071884;28;20488;-65
2021/01/10 01:48:54;;;;;;;48.13;19.83;;;;;;;0.95;100.00;103092.53;5071285;28;20059;-65
2021/01/10 01:51:20;;;;;;;45.05;20.88;;;;;;;0.92;100.00;103090.94;5053266;28;20432;-65
2021/01/10 01:53:47;;;;;;;46.38;21.00;;;;;;;0.93;100.00;103095.34;5071176;28;20062;-65
2021/01/10 01:56:13;;;;;;;43.15;20.70;;;;;;;0.93;100.00;103081.91;5071247;28;20102;-65
2021/01/10 01:58:55;;;;;;;44.08;19.77;;;;;;;0.90;100.00;103091.09;5071059;28;20456;-65
2021/01/10 02:01:21;;;;;;;41.28;20.63;;;;;;;0.89;100.00;103088.53;5071176;28;20490;-65
2021/01/10 02:03:47;;;;;;;44.53;21.65;;;;;;;0.90;100.00;103084.84;5071105;28;20529;-65
2021/01/10 02:06:22;;;;;;;45.30;19.33;;;;;;;0.92;100.00;103087.41;5071103;28;20438;-65
2021/01/10 02:08:53;;;;;;;42.60;18.98;;;;;;;0.90;100.00;103093.78;5070764;28;20037;-65
2021/01/10 02:11:21;;;;;;;45.58;20.98;;;;;;;0.89;100.00;103097.44;5070281;28;20055;-66
2021/01/10 02:13:48;;;;;;;41.38;19.17;;;;;;;0.92;100.00;103092.78;5071036;28;20371;-65
2021/01/10 02:16:16;;;;;;;46.03;19.70;;;;;;;0.96;100.00;103095.09;5071162;28;20417;-65
2021/01/10 02:18:43;;;;;;;45.70;20.20;;;;;;;1.00;100.00;103095.69;5070879;28;20062;-65
2021/01/10 02:21:11;;;;;;;48.58;20.92;;;;;;;1.02;100.00;103091.06;5070912;28;20174;-65
2021/01/10 02:23:40;;;;;;;47.03;20.98;;;;;;;1.05;100.00;103086.28;5070782;28;20044;-65
2021/01/10 02:26:06;;;;;;;47.03;20.10;;;;;;;1.07;100.00;103094.25;5070759;28;20109;-65
2021/01/10 02:28:33;;;;;;;45.25;19.17;;;;;;;1.02;100.00;103094.59;5070824;28;20035;-65
2021/01/10 02:31:00;;;;;;;44.25;20.20;;;;;;;0.99;100.00;103097.53;5070681;28;20069;-65
2021/01/10 02:33:48;;;;;;;51.13;21.00;;;;;;;0.96;100.00;103083.47;5070820;28;20612;-65
2021/01/10 02:36:24;;;;;;;46.13;19.42;;;;;;;0.98;100.00;103086.91;5071337;28;20044;-65
2021/01/10 02:39:01;;;;;;;42.63;19.52;;;;;;;0.95;100.00;103082.63;5070676;28;20540;-65
2021/01/10 02:42:06;;;;;;;47.20;19.58;;;;;;;0.94;100.00;103090.81;5070697;28;20139;-65
2021/01/10 02:44:39;;;;;;;45.22;19.55;;;;;;;0.94;100.00;103090.81;4969447;28;20051;-65
2021/01/10 02:47:07;;;;;;;49.17;20.65;;;;;;;0.97;100.00;103093.25;4991947;28;20106;-65
2021/01/10 02:49:33;;;;;;;50.47;21.65;;;;;;;0.99;100.00;103085.91;5052822;28;20044;-65
2021/01/10 02:51:59;;;;;;;49.70;21.40;;;;;;;1.03;100.00;103082.00;5070625;28;20070;-64
2021/01/10 02:54:24;;;;;;;49.42;21.17;;;;;;;1.08;100.00;103077.13;5070495;28;20040;-65
2021/01/10 02:57:15;;;;;;;53.63;21.45;;;;;;;1.15;100.00;103072.94;5070549;28;20062;-65
2021/01/10 02:59:43;;;;;;;51.20;21.92;;;;;;;1.18;100.00;103075.38;5070627;28;20047;-65
2021/01/10 03:02:12;;;;;;;51.20;22.38;;;;;;;1.20;100.00;103070.69;5052469;28;20060;-65
2021/01/10 03:04:38;;;;;;;54.45;22.83;;;;;;;1.19;100.00;103064.47;5070427;28;20120;-65
2021/01/10 03:07:05;;;;;;;55.03;22.40;;;;;;;1.22;100.00;103060.69;5070467;28;20115;-65
2021/01/10 03:09:32;;;;;;;50.50;21.50;;;;;;;1.25;100.00;103057.75;5070368;28;20035;-65
2021/01/10 03:12:30;;;;;;;51.80;21.90;;;;;;;1.26;100.00;103056.75;5070111;28;20122;-65
2021/01/10 03:15:00;;;;;;;47.67;21.83;;;;;;;1.26;100.00;103048.69;5070645;28;20041;-65
2021/01/10 03:17:41;;;;;;;44.88;19.75;;;;;;;1.26;100.00;103047.81;5070379;28;20085;-65
2021/01/10 03:20:11;;;;;;;49.90;21.48;;;;;;;1.25;100.00;103046.97;5070263;28;20103;-65
2021/01/10 03:22:36;;;;;;;51.85;21.63;;;;;;;1.23;100.00;103040.88;5072532;28;20527;-65
2021/01/10 03:25:06;;;;;;;50.40;21.60;;;;;;;1.18;100.00;103035.84;5074109;28;20040;-65
2021/01/10 03:27:33;;;;;;;51.25;22.05;;;;;;;1.16;100.00;103031.56;5074052;28;20135;-65
2021/01/10 03:30:00;;;;;;;49.58;21.98;;;;;;;1.13;100.00;103029.13;5073848;28;20036;-65
2021/01/10 03:32:26;;;;;;;48.15;21.60;;;;;;;1.12;100.00;103035.50;5073787;28;20036;-65
2021/01/10 03:34:52;;;;;;;47.15;21.25;;;;;;;1.06;100.00;103026.09;5073871;28;20043;-65
2021/01/10 03:37:17;;;;;;;46.20;21.10;;;;;;;1.05;100.00;103031.63;5073764;28;20136;-65
2021/01/10 03:39:43;;;;;;;50.83;22.20;;;;;;;1.02;100.00;103023.78;5073768;28;20048;-65
2021/01/10 03:42:09;;;;;;;47.03;22.00;;;;;;;0.99;100.00;103032.09;5073972;28;20033;-65
2021/01/10 03:44:35;;;;;;;44.22;19.85;;;;;;;0.95;100.00;103022.59;5073634;28;20375;-65
2021/01/10 03:47:01;;;;;;;47.30;20.70;;;;;;;0.91;100.00;103032.75;5055777;28;20369;-65
2021/01/10 03:49:26;;;;;;;45.20;21.23;;;;;;;0.89;100.00;103035.56;5073508;28;20139;-65
2021/01/10 03:51:52;;;;;;;46.72;20.40;;;;;;;0.87;100.00;103037.53;5073598;28;20123;-65
2021/01/10 03:54:18;;;;;;;49.22;21.73;;;;;;;0.86;100.00;103034.94;5073494;28;20127;-65
2021/01/10 03:56:43;;;;;;;46.70;21.17;;;;;;;0.85;100.00;103038.59;5073571;28;20040;-65
2021/01/10 03:59:09;;;;;;;51.83;22.75;;;;;;;0.82;100.00;103039.72;5073430;28;20055;-65
2021/01/10 04:01:35;;;;;;;46.85;21.35;;;;;;;0.81;100.00;103037.16;5073394;28;20032;-65
2021/01/10 04:04:01;;;;;;;48.75;23.17;;;;;;;0.78;100.00;103043.63;5073260;28;20041;-65
2021/01/10 04:06:28;;;;;;;49.38;20.70;;;;;;;0.75;100.00;103041.19;5073453;28;20083;-65
2021/01/10 04:08:54;;;;;;;49.53;21.25;;;;;;;0.73;100.00;103037.78;5073681;28;20075;-65
2021/01/10 04:11:21;;;;;;;50.75;21.08;;;;;;;0.70;100.00;103034.50;5073241;28;20484;-65
2021/01/10 04:13:46;;;;;;;53.15;21.98;;;;;;;0.65;100.00;103032.16;5073433;28;20045;-65
2021/01/10 04:16:12;;;;;;;52.50;21.25;;;;;;;0.62;100.00;103037.78;5073342;28;20466;-65
2021/01/10 04:18:38;;;;;;;51.72;22.27;;;;;;;0.60;100.00;103034.38;5073199;28;20041;-65
2021/01/10 04:21:04;;;;;;;51.28;21.73;;;;;;;0.59;100.00;103035.34;5073290;28;20077;-65
2021/01/10 04:23:30;;;;;;;54.00;22.08;;;;;;;0.56;100.00;103041.81;5073228;28;20136;-65
2021/01/10 04:25:55;;;;;;;55.67;23.45;;;;;;;0.54;100.00;103034.88;5073218;28;20047;-65
2021/01/10 04:28:21;;;;;;;56.25;22.13;;;;;;;0.52;100.00;103042.16;5073197;28;20049;-65
2021/01/10 04:30:47;;;;;;;58.45;24.13;;;;;;;0.51;100.00;103040.47;5072996;28;20041;-65
2021/01/10 04:33:12;;;;;;;56.00;22.48;;;;;;;0.49;100.00;103031.66;5072479;28;20530;-65
2021/01/10 04:35:38;;;;;;;61.60;23.90;;;;;;;0.49;100.00;103037.03;5072927;28;20036;-65
2021/01/10 04:38:04;;;;;;;54.85;22.95;;;;;;;0.47;100.00;103022.88;5072957;28;20036;-65
2021/01/10 04:40:30;;;;;;;53.17;22.35;;;;;;;0.47;100.00;103025.56;5072936;28;20047;-65
2021/01/10 04:42:55;;;;;;;55.00;21.95;;;;;;;0.45;100.00;103022.13;5072849;28;20037;-65
2021/01/10 04:45:22;;;;;;;54.05;21.58;;;;;;;0.44;100.00;103012.38;5072889;28;20048;-65
2021/01/10 04:47:47;;;;;;;54.08;21.73;;;;;;;0.41;100.00;103018.00;5072747;28;20044;-64
2021/01/10 04:50:13;;;;;;;46.00;20.30;;;;;;;0.39;100.00;103009.19;5072608;28;20103;-65
2021/01/10 04:52:39;;;;;;;46.92;21.08;;;;;;;0.35;100.00;103013.09;5072719;28;20041;-65
2021/01/10 04:55:06;;;;;;;43.70;20.75;;;;;;;0.32;100.00;103013.34;5072699;28;20036;-65
2021/01/10 04:57:33;;;;;;;44.67;19.10;;;;;;;0.26;100.00;103014.69;5072770;28;20089;-65
2021/01/10 04:59:59;;;;;;;38.33;18.60;;;;;;;0.21;100.00;103017.75;5072505;28;20036;-65
2021/01/10 05:02:26;;;;;;;43.72;20.00;;;;;;;0.17;100.00;103020.78;5072568;28;20048;-65
2021/01/10 05:04:54;;;;;;;46.25;20.45;;;;;;;0.12;100.00;103007.72;5072515;28;20052;-65
2021/01/10 05:07:20;;;;;;;39.35;19.65;;;;;;;0.09;100.00;103015.16;5072324;28;20043;-65
2021/01/10 05:09:46;;;;;;;39.28;18.67;;;;;;;0.03;100.00;103008.44;5072149;28;20040;-65
2021/01/10 05:12:13;;;;;;;38.75;18.05;;;;;;;-0.04;100.00;103010.75;5071897;28;20058;-65
2021/01/10 05:14:39;;;;;;;37.17;17.77;;;;;;;-0.10;100.00;103013.06;5072052;28;20074;-65
2021/01/10 05:17:04;;;;;;;40.42;18.50;;;;;;;-0.15;100.00;103015.25;5071851;28;20129;-65
2021/01/10 05:19:31;;;;;;;40.25;18.77;;;;;;;-0.23;100.00;102999.72;5071903;28;20043;-65
2021/01/10 05:21:57;;;;;;;40.33;19.05;;;;;;;-0.27;100.00;103005.44;5071855;28;20041;-65
2021/01/10 05:24:22;;;;;;;42.25;18.38;;;;;;;-0.33;100.00;103002.28;5072009;28;20085;-65
2021/01/10 05:26:48;;;;;;;41.70;18.52;;;;;;;-0.36;100.00;103007.84;5071748;28;20048;-65
2021/01/10 05:29:14;;;;;;;41.38;19.13;;;;;;;-0.40;100.00;103006.38;5071655;28;20041;-65
2021/01/10 05:31:45;;;;;;;39.10;18.80;;;;;;;-0.41;100.00;102999.31;5071692;28;20630;-65
2021/01/10 05:34:19;;;;;;;38.17;18.23;;;;;;;-0.41;100.00;103009.19;5071816;28;20036;-65
2021/01/10 05:36:45;;;;;;;39.63;19.33;;;;;;;-0.42;100.00;103010.16;5071600;28;20486;-65
2021/01/10 05:39:18;;;;;;;41.50;19.05;;;;;;;-0.41;100.00;103009.19;5071379;28;20029;-65
2021/01/10 05:42:01;;;;;;;41.63;19.25;;;;;;;-0.40;100.00;103011.75;5071323;28;20440;-65
2021/01/10 05:44:28;;;;;;;37.08;18.10;;;;;;;-0.39;100.00;103010.78;5070574;28;20031;-65
2021/01/10 05:47:07;;;;;;;37.40;19.02;;;;;;;-0.36;100.00;103018.59;5071478;28;20040;-65
2021/01/10 05:49:33;;;;;;;42.20;18.45;;;;;;;-0.34;100.00;103016.66;5071658;28;20085;-65
2021/01/10 05:52:09;;;;;;;39.83;18.60;;;;;;;-0.33;100.00;103021.06;5071298;28;20044;-65
2021/01/10 05:54:35;;;;;;;40.88;19.52;;;;;;;-0.33;100.00;103018.38;5071445;28;20070;-66
2021/01/10 05:57:03;;;;;;;42.85;19.20;;;;;;;-0.32;100.00;103020.09;5071225;28;20466;-65
2021/01/10 05:59:31;;;;;;;43.42;19.73;;;;;;;-0.30;100.00;103025.34;5071088;28;20143;-65
2021/01/10 06:01:58;;;;;;;41.72;18.23;;;;;;;-0.31;100.00;103027.16;5071216;28;20033;-65
2021/01/10 06:04:24;;;;;;;40.63;18.85;;;;;;;-0.31;100.00;103029.84;5053134;28;20059;-65
2021/01/10 06:06:50;;;;;;;42.30;20.00;;;;;;;-0.28;100.00;103030.59;5071011;28;20406;-65
2021/01/10 06:09:16;;;;;;;40.88;19.40;;;;;;;-0.29;100.00;103023.50;5071056;28;20077;-65
2021/01/10 06:11:41;;;;;;;39.42;18.33;;;;;;;-0.27;100.00;103032.31;5070767;28;20084;-65
2021/01/10 06:14:07;;;;;;;40.50;18.83;;;;;;;-0.27;100.00;103018.88;5070926;28;20099;-65
2021/01/10 06:16:34;;;;;;;39.97;19.08;;;;;;;-0.27;100.00;103021.56;5070898;28;20037;-65
2021/01/10 06:19:06;;;;;;;45.20;19.58;;;;;;;-0.26;100.00;103017.91;5053009;28;20028;-65
2021/01/10 06:21:32;;;;;;;40.33;18.75;;;;;;;-0.26;100.00;103028.63;5070983;28;20029;-65
2021/01/10 06:24:00;;;;;;;40.30;18.88;;;;;;;-0.27;100.00;103021.56;5071086;28;20040;-65
2021/01/10 06:26:31;;;;;;;36.22;18.00;;;;;;;-0.28;100.00;103025.22;5070825;28;20032;-65
2021/01/10 06:29:07;;;;;;;42.53;20.77;;;;;;;-0.29;100.00;103024.38;5070735;28;20044;-65
2021/01/10 06:31:34;;;;;;;40.60;18.58;;;;;;;-0.30;100.00;103017.28;5070726;28;20076;-65
2021/01/10 06:34:08;;;;;;;41.78;19.15;;;;;;;-0.32;100.00;103025.47;5070687;28;20040;-65
2021/01/10 06:36:39;;;;;;;38.60;17.97;;;;;;;-0.32;100.00;103019.22;5052876;28;20467;-65
2021/01/10 06:39:11;;;;;;;40.75;19.90;;;;;;;-0.31;100.00;103016.44;5070623;28;20070;-65
2021/01/10 06:41:52;;;;;;;42.00;19.23;;;;;;;-0.30;100.00;103022.66;5070789;28;20032;-65
2021/01/10 06:44:20;;;;;;;45.80;20.23;;;;;;;-0.29;100.00;103012.78;5070572;28;20105;-65
2021/01/10 06:46:53;;;;;;;45.78;20.33;;;;;;;-0.28;100.00;103019.84;5070685;28;20028;-65
2021/01/10 06:49:21;;;;;;;40.40;19.23;;;;;;;-0.26;100.00;103012.53;5070683;28;20072;-65
2021/01/10 06:51:48;;;;;;;43.03;19.65;;;;;;;-0.24;100.00;103015.94;5070616;28;20036;-65
2021/01/10 06:54:14;;;;;;;43.10;19.55;;;;;;;-0.22;100.00;103011.31;5070579;28;20094;-65
2021/01/10 06:56:47;;;;;;;39.70;18.65;;;;;;;-0.18;100.00;103012.78;5073185;28;20033;-65
2021/01/10 06:59:23;;;;;;;46.60;20.15;;;;;;;-0.16;100.00;103019.78;5074563;28;20036;-65
2021/01/10 07:01:48;;;;;;;40.22;19.73;;;;;;;-0.16;100.00;103024.28;5056516;28;20466;-65
2021/01/10 07:04:22;;;;;;;43.80;19.58;;;;;;;-0.15;100.00;103020.63;5074371;28;20034;-65
2021/01/10 07:06:54;;;;;;;45.25;21.50;;;;;;;-0.13;100.00;103024.03;5074541;28;20040;-65
2021/01/10 07:09:23;;;;;;;43.13;19.42;;;;;;;-0.13;100.00;103021.34;5074387;28;20055;-65
2021/01/10 07:11:49;;;;;;;44.80;20.35;;;;;;;-0.15;100.00;103020.63;5074186;28;20123;-65
2021/01/10 07:14:18;;;;;;;43.35;20.60;;;;;;;-0.14;100.00;103019.66;5074441;28;20047;-65
2021/01/10 07:16:45;;;;;;;43.55;19.88;;;;;;;-0.15;100.00;103017.94;5074230;28;20136;-65
2021/01/10 07:19:13;;;;;;;49.67;21.85;;;;;;;-0.15;100.00;103026.00;5074104;28;20055;-65
2021/01/10 07:21:41;;;;;;;54.50;20.92;;;;;;;-0.13;100.00;103024.03;5074101;28;20028;-65
2021/01/10 07:24:13;;;;;;;52.63;22.20;;;;;;;-0.12;100.00;103028.44;5073992;28;20556;-65
2021/01/10 07:26:57;;;;;;;64.97;23.08;;;;;;;-0.13;100.00;103030.28;5074331;28;20032;-65
2021/01/10 07:29:31;;;;;;;168.20;27.13;;;;;;;-0.11;100.00;103030.16;5073984;28;20038;-65
2021/01/10 07:32:07;;;;;;;262.60;35.05;;;;;;;-0.12;100.00;103034.66;5073854;28;20183;-65
2021/01/10 07:34:37;;;;;;;165.85;28.08;;;;;;;-0.12;100.00;103039.19;5073765;28;20055;-65
2021/01/10 07:37:05;;;;;;;105.97;26.33;;;;;;;-0.12;100.00;103039.19;5073875;28;20470;-65
2021/01/10 07:39:35;;;;;;;95.40;25.27;;;;;;;-0.10;100.00;103034.53;5073722;28;20036;-65
2021/01/10 07:42:15;;;;;;;89.95;28.58;;;;;;;-0.09;100.00;103036.25;5055839;28;20094;-65
2021/01/10 07:44:45;;;;;;;87.38;26.45;;;;;;;-0.04;100.00;103036.75;5055827;28;20375;-65
2021/01/10 07:47:11;;;;;;;61.97;24.70;;;;;;;-0.01;100.00;103040.03;5073699;28;20119;-65
2021/01/10 07:49:56;;;;;;;70.40;27.45;;;;;;;0.05;100.00;103033.34;5073387;28;20052;-65
2021/01/10 07:52:50;;;;;;;63.70;25.73;;;;;;;0.09;100.00;103033.97;5073502;28;20039;-65
2021/01/10 07:55:18;;;;;;;60.90;25.80;;;;;;;0.10;100.00;103052.66;5073515;28;20036;-65
2021/01/10 07:57:53;;;;;;;63.40;24.70;;;;;;;0.11;100.00;103057.06;5073546;28;20072;-65
2021/01/10 08:00:23;;;;;;;61.42;24.95;;;;;;;0.10;100.00;103055.34;5073434;28;20052;-65
2021/01/10 08:02:59;;;;;;;73.38;26.60;;;;;;;0.10;100.00;103044.59;5073429;28;20074;-65
2021/01/10 08:05:28;;;;;;;61.83;24.70;;;;;;;0.09;100.00;103056.31;5073384;28;20032;-65
2021/01/10 08:07:58;;;;;;;107.28;29.10;;;;;;;0.08;100.00;103054.59;5072336;28;20437;-65
2021/01/10 08:10:52;;;;;;;74.38;25.70;;;;;;;0.08;100.00;103054.59;5073246;28;20119;-65
2021/01/10 08:13:46;;;;;;;106.93;25.92;;;;;;;0.08;100.00;103051.91;5073014;28;20361;-65
2021/01/10 08:16:13;;;;;;;202.20;30.45;;;;;;;0.11;100.00;103064.25;5073198;28;20111;-65
2021/01/10 08:18:44;;;;;;;100.25;27.35;;;;;;;0.13;100.00;103057.78;5073059;28;20036;-65
2021/01/10 08:21:14;;;;;;;182.70;28.23;;;;;;;0.14;100.00;103059.50;5073097;28;20059;-65
2021/01/10 08:23:41;;;;;;;83.45;25.45;;;;;;;0.13;100.00;103063.16;5072931;28;20108;-65
2021/01/10 08:26:10;;;;;;;116.90;28.02;;;;;;;0.15;100.00;103066.56;5072905;28;20038;-65
2021/01/10 08:28:38;;;;;;;63.13;25.50;;;;;;;0.15;100.00;103071.94;5072780;28;20059;-65
2021/01/10 08:31:09;;;;;;;70.32;26.05;;;;;;;0.17;100.00;103075.38;5072899;28;20170;-65
2021/01/10 08:33:35;;;;;;;67.07;25.73;;;;;;;0.18;100.00;103082.50;5072982;28;20049;-65
2021/01/10 08:36:14;;;;;;;152.05;26.58;;;;;;;0.19;100.00;103078.81;5072882;28;20407;-65
2021/01/10 08:38:52;;;;;;;452.73;36.17;;;;;;;0.20;100.00;103080.53;5072627;28;20382;-65
2021/01/10 08:41:23;;;;;;;359.48;34.63;;;;;;;0.16;100.00;103089.78;5072582;28;20090;-66
2021/01/10 08:43:55;;;;;;;314.67;29.15;;;;;;;0.13;100.00;103078.44;5072493;28;20452;-65
2021/01/10 08:46:21;;;;;;;67.95;25.58;;;;;;;0.11;100.00;103081.25;5072721;28;20040;-65
2021/01/10 08:48:47;;;;;;;67.55;25.40;;;;;;;0.14;100.00;103089.06;5072667;28;20037;-65
2021/01/10 08:51:41;;;;;;;63.20;25.00;;;;;;;0.21;100.00;103086.78;5072464;28;20040;-65
2021/01/10 08:54:09;;;;;;;91.20;26.67;;;;;;;0.28;100.00;103086.16;5069189;28;20501;-65
2021/01/10 08:56:35;;;;;;;65.75;23.85;;;;;;;0.34;100.00;103081.25;5072298;28;20072;-65
2021/01/10 08:59:01;;;;;;;56.45;24.17;;;;;;;0.37;100.00;103089.13;5072180;28;20115;-65
2021/01/10 09:01:27;;;;;;;61.80;25.38;;;;;;;0.40;100.00;103081.66;5072283;28;20039;-65
2021/01/10 09:03:56;;;;;;;63.85;25.65;;;;;;;0.43;100.00;103083.25;5072234;28;20098;-65
2021/01/10 09:06:34;;;;;;;65.28;26.38;;;;;;;0.46;100.00;103088.38;5072237;28;20398;-65
2021/01/10 09:09:09;;;;;;;61.38;25.15;;;;;;;0.49;100.00;103090.81;5072082;28;20561;-65
2021/01/10 09:11:36;;;;;;;56.75;24.00;;;;;;;0.52;100.00;103090.56;5071840;28;20390;-65
2021/01/10 09:14:06;;;;;;;59.83;25.20;;;;;;;0.55;100.00;103090.34;5071944;28;20600;-65
2021/01/10 09:16:35;;;;;;;60.97;26.27;;;;;;;0.57;100.00;103104.53;5071948;28;20032;-65
2021/01/10 09:19:02;;;;;;;60.90;25.73;;;;;;;0.58;100.00;103107.09;5071801;28;20579;-65
2021/01/10 09:21:28;;;;;;;66.43;26.42;;;;;;;0.59;100.00;103098.03;5071872;28;20032;-65
2021/01/10 09:23:58;;;;;;;52.25;23.60;;;;;;;0.62;100.00;103107.69;5071876;28;20090;-65
2021/01/10 09:26:32;;;;;;;51.25;23.45;;;;;;;0.63;100.00;103098.66;5071850;28;20044;-65
2021/01/10 09:29:00;;;;;;;52.72;23.95;;;;;;;0.66;100.00;103100.25;5071578;28;20090;-65
2021/01/10 09:31:37;;;;;;;53.58;22.45;;;;;;;0.68;100.00;103098.28;5071618;28;20029;-65
2021/01/10 09:34:05;;;;;;;53.28;23.48;;;;;;;0.70;100.00;103097.22;5071584;28;20048;-65
2021/01/10 09:36:31;;;;;;;57.60;24.75;;;;;;;0.72;100.00;103087.19;5071636;28;20113;-65
2021/01/10 09:38:57;;;;;;;56.42;24.70;;;;;;;0.74;100.00;103098.66;5071570;28;20415;-65
2021/01/10 09:41:23;;;;;;;57.35;25.02;;;;;;;0.78;100.00;103092.06;5071527;28;20090;-65
2021/01/10 09:44:01;;;;;;;60.65;25.63;;;;;;;0.82;100.00;103092.66;5071885;28;20082;-65
2021/01/10 09:46:31;;;;;;;63.55;26.63;;;;;;;0.86;100.00;103092.28;5071441;28;20395;-65
2021/01/10 09:49:04;;;;;;;63.55;26.98;;;;;;;0.94;100.00;103086.31;5071260;28;20111;-65
2021/01/10 09:51:40;;;;;;;58.28;26.35;;;;;;;1.03;100.00;103100.81;5071155;28;20111;-65
2021/01/10 09:54:14;;;;;;;66.95;27.45;;;;;;;1.08;100.00;103104.88;5071112;28;20119;-65
2021/01/10 09:56:40;;;;;;;69.82;28.42;;;;;;;1.12;100.00;103095.56;5071395;28;20039;-65
2021/01/10 09:59:26;;;;;;;67.28;30.85;;;;;;;1.17;100.00;103100.56;5071168;28;20040;-65
2021/01/10 10:01:52;;;;;;;66.60;29.65;;;;;;;1.18;100.00;103099.59;5056888;28;20047;-65
2021/01/10 10:04:30;;;;;;;61.25;27.88;;;;;;;1.18;100.00;103099.59;5070979;28;20052;-65
2021/01/10 10:06:55;;;;;;;71.93;28.38;;;;;;;1.19;100.00;103102.16;5071067;28;20064;-65
2021/01/10 10:09:21;;;;;;;68.60;29.30;;;;;;;1.23;100.00;103108.16;5070973;28;20113;-65
2021/01/10 10:11:49;;;;;;;73.05;31.67;;;;;;;1.28;100.00;103105.09;5070874;28;20056;-65
2021/01/10 10:14:15;;;;;;;65.63;28.88;;;;;;;1.33;100.00;103106.41;5070967;28;20501;-65
2021/01/10 10:16:41;;;;;;;64.53;28.65;;;;;;;1.37;100.00;103105.16;5071007;28;20044;-65
2021/01/10 10:19:08;;;;;;;63.17;30.02;;;;;;;1.42;100.00;103107.50;5070763;28;20809;-65
2021/01/10 10:21:34;;;;;;;58.92;27.80;;;;;;;1.47;100.00;103107.97;5070909;28;20044;-65
2021/01/10 10:23:59;;;;;;;56.28;26.13;;;;;;;1.50;100.00;103105.88;5070813;28;20048;-65
2021/01/10 10:26:25;;;;;;;54.65;24.40;;;;;;;1.54;100.00;103102.91;5070946;28;20040;-65
2021/01/10 10:28:50;;;;;;;52.03;25.83;;;;;;;1.55;100.00;103108.19;5070927;28;20036;-65
2021/01/10 10:31:16;;;;;;;51.40;25.58;;;;;;;1.57;100.00;103110.78;5070258;28;20059;-65
2021/01/10 10:33:42;;;;;;;54.95;25.52;;;;;;;1.60;100.00;103099.75;5052851;28;20043;-65
2021/01/10 10:36:08;;;;;;;48.50;23.73;;;;;;;1.65;100.00;103108.28;5070686;28;20036;-65
2021/01/10 10:38:34;;;;;;;53.95;25.17;;;;;;;1.67;100.00;103100.91;5070619;28;20536;-65
2021/01/10 10:41:00;;;;;;;47.25;24.10;;;;;;;1.71;100.00;103107.75;5070756;28;20483;-65
2021/01/10 10:43:26;;;;;;;46.20;23.55;;;;;;;1.71;100.00;103102.38;5070665;28;20460;-65
2021/01/10 10:45:54;;;;;;;50.33;23.98;;;;;;;1.71;100.00;103102.38;5070797;28;20068;-65
2021/01/10 10:48:20;;;;;;;47.90;24.92;;;;;;;1.70;100.00;103106.06;5070646;28;20035;-65
2021/01/10 10:50:46;;;;;;;45.45;23.02;;;;;;;1.70;100.00;103089.88;5070523;28;20032;-65
2021/01/10 10:53:11;;;;;;;49.50;23.52;;;;;;;1.75;100.00;103098.47;5070365;28;20045;-65
2021/01/10 10:55:37;;;;;;;52.47;24.58;;;;;;;1.76;100.00;103101.03;5070514;28;20049;-65
2021/01/10 10:58:03;;;;;;;50.28;25.30;;;;;;;1.81;100.00;103103.31;5052694;28;20043;-65
2021/01/10 11:00:28;;;;;;;49.25;26.73;;;;;;;1.83;100.00;103090.56;5070470;28;20449;-65
2021/01/10 11:02:54;;;;;;;50.83;24.30;;;;;;;1.85;100.00;103104.75;5070495;28;20124;-65
2021/01/10 11:05:22;;;;;;;55.50;25.60;;;;;;;1.88;100.00;103101.81;5070427;28;20044;-65
2021/01/10 11:07:48;;;;;;;51.33;25.55;;;;;;;1.92;100.00;103100.59;5070447;28;20040;-65
2021/01/10 11:10:14;;;;;;;58.85;27.33;;;;;;;1.96;100.00;103102.03;5070278;28;20036;-65
2021/01/10 11:12:40;;;;;;;53.97;25.40;;;;;;;2.04;100.00;103093.28;5035474;28;20167;-65
2021/01/10 11:15:07;;;;;;;52.90;26.33;;;;;;;2.13;100.00;103097.03;5070445;28;20119;-65